KLNA

Palm Beach County Park Airport

West Palm Beach, Florida, USA
METAR KLNA 222035Z AUTO 05012G16KT 10SM SCT055 27/19 A3009 RMK AO2 T02700185
Observed Flight Rules
Oct-22 @ 20:35 UTC (13 minutes ago) Visual Flight Rules
Wind Visibility Clouds
50° at 12 knots
 Gusting to 16 knots
10 miles
  • Scattered at 5,500' AGL
Temperatures Readings
Current 27°C / 81°F
Dewpoint 19°C / 66°F
Humidity 62%
Altimeter 30.09" Hg
Pressure 1019 hPa
Elevation 11
METAR KLNA 222035Z AUTO 05012G16KT 10SM SCT055 27/19 A3009 RMK AO2 T02700185
Observed Flight Rules
Oct-22 @ 20:35 UTC
(13 minutes ago)
VFR
Wind Visibility
50° at 12 knots
 Gusting to 16 knots
10 miles
Clouds
  • Scattered at 5,500' AGL
Temperature Dewpoint
27°C / 81°F 19°C / 66°F
Humidity Altimeter Pressure
62% 30.09" Hg 1019 hPa